Time;durP1;ratioP1;P1;durP2;ratioP2;P2;SDS_P1;SDS_P2;PMS_P1;PMS_P2;Temp;Humidity;BMP_temperature;BMP_pressure;BME280_temperature;BME280_humidity;BME280_pressure;Samples;Min_cycle;Max_cycle;Signal;HPM_P1;HPM_P2
2021/08/07 00:08:54;;;;;;;3.38;1.52;;;26.20;25.80;;;;;;21206624;27;81069;-66
2021/08/07 00:18:56;;;;;;;6.05;2.33;;;26.20;26.10;;;;;;21223660;27;81177;-66
2021/08/07 00:28:58;;;;;;;2.85;1.50;;;26.00;26.50;;;;;;21223573;27;80775;-68
2021/08/07 00:39:01;;;;;;;5.93;1.75;;;25.90;27.00;;;;;;21222953;27;80935;-67
2021/08/07 00:49:04;;;;;;;5.00;1.67;;;25.80;27.20;;;;;;21227270;27;81700;-66
2021/08/07 00:59:05;;;;;;;3.45;1.60;;;25.60;27.60;;;;;;21218561;27;80731;-65
2021/08/07 01:09:29;;;;;;;3.78;1.42;;;25.50;28.10;;;;;;21218316;27;80037;-66
2021/08/07 01:20:02;;;;;;;4.03;1.58;;;25.30;28.60;;;;;;21217873;27;80695;-66
2021/08/07 01:30:08;;;;;;;3.13;1.50;;;25.20;29.10;;;;;;21235722;27;81835;-66
2021/08/07 01:40:13;;;;;;;2.35;1.20;;;25.10;29.50;;;;;;21216771;27;80677;-66
2021/08/07 01:50:41;;;;;;;2.60;1.48;;;24.90;30.40;;;;;;21215744;27;79891;-68
2021/08/07 02:00:48;;;;;;;7.45;1.60;;;24.70;31.20;;;;;;21214082;27;80599;-69
2021/08/07 02:10:58;;;;;;;4.30;1.13;;;24.40;31.90;;;;;;21214283;27;80715;-65
2021/08/07 02:21:02;;;;;;;2.10;1.20;;;24.30;32.30;;;;;;21213925;27;81826;-65
2021/08/07 02:31:07;;;;;;;6.00;1.20;;;24.20;32.80;;;;;;21230222;27;80989;-67
2021/08/07 02:41:12;;;;;;;5.15;1.20;;;24.00;32.80;;;;;;21212254;27;81807;-65
2021/08/07 02:51:19;;;;;;;4.35;1.42;;;23.90;32.90;;;;;;21211407;27;80722;-65
2021/08/07 03:01:22;;;;;;;5.00;1.33;;;23.80;33.30;;;;;;21209978;27;80623;-66
2021/08/07 03:11:25;;;;;;;3.25;0.85;;;23.60;33.60;;;;;;21208822;27;80169;-69
2021/08/07 03:21:28;;;;;;;5.95;1.30;;;23.40;34.20;;;;;;21227612;27;80015;-66
2021/08/07 03:31:30;;;;;;;1.85;0.80;;;23.10;34.90;;;;;;21225770;27;80654;-66
2021/08/07 03:41:32;;;;;;;4.30;1.20;;;22.80;35.50;;;;;;21208035;27;81223;-66
2021/08/07 03:51:35;;;;;;;3.90;1.23;;;22.70;35.90;;;;;;21225619;27;79960;-65
2021/08/07 04:01:38;;;;;;;3.50;0.90;;;22.50;36.30;;;;;;21205993;27;80618;-66
2021/08/07 04:11:41;;;;;;;5.82;1.27;;;22.40;36.90;;;;;;21224641;27;80695;-65
2021/08/07 04:21:45;;;;;;;2.35;1.15;;;22.40;36.90;;;;;;21207973;27;80829;-66
2021/08/07 04:31:47;;;;;;;2.92;1.02;;;22.30;36.90;;;;;;21238746;27;80882;-69
2021/08/07 04:41:50;;;;;;;2.88;1.35;;;22.20;36.80;;;;;;21238553;27;80827;-64
2021/08/07 04:51:56;;;;;;;5.28;1.40;;;22.20;37.40;;;;;;21238806;27;79866;-67
2021/08/07 05:01:57;;;;;;;;;;;22.00;37.90;;;;;;21237397;27;81086;-66
2021/08/07 05:11:59;;;;;;;2.78;1.38;;;21.90;38.50;;;;;;21240462;27;82063;-66
2021/08/07 05:22:01;;;;;;;5.70;1.52;;;21.60;39.10;;;;;;21217423;27;79999;-66
2021/08/07 05:32:04;;;;;;;8.65;1.70;;;21.40;39.90;;;;;;21217092;27;80737;-67
2021/08/07 05:42:06;;;;;;;4.18;2.17;;;21.40;40.20;;;;;;21215445;27;80823;-65
2021/08/07 05:52:08;;;;;;;5.65;2.10;;;21.40;40.60;;;;;;21215562;27;80743;-67
2021/08/07 06:02:10;;;;;;;8.30;2.65;;;21.30;40.70;;;;;;21231732;27;79922;-66
2021/08/07 06:12:13;;;;;;;5.90;2.08;;;21.40;40.80;;;;;;21215494;27;83029;-69
2021/08/07 06:22:16;;;;;;;5.88;2.70;;;21.50;40.90;;;;;;21231935;27;80542;-67
2021/08/07 06:32:18;;;;;;;5.47;2.45;;;21.60;40.90;;;;;;21212682;27;81157;-69
2021/08/07 06:42:21;;;;;;;7.43;2.17;;;21.70;40.90;;;;;;21212087;27;80683;-66
2021/08/07 06:52:24;;;;;;;3.10;1.83;;;21.70;41.10;;;;;;21210789;27;79899;-69
2021/08/07 07:02:26;;;;;;;6.25;2.45;;;21.80;40.80;;;;;;21228658;27;80913;-69
2021/08/07 07:12:29;;;;;;;5.75;1.83;;;21.90;40.60;;;;;;21228440;27;81103;-65
2021/08/07 07:22:33;;;;;;;12.13;2.85;;;22.00;40.10;;;;;;21209739;27;80193;-69
2021/08/07 07:32:35;;;;;;;5.03;2.75;;;22.20;40.00;;;;;;21208259;27;80556;-65
2021/08/07 07:42:39;;;;;;;5.70;3.22;;;22.40;39.60;;;;;;21207870;27;81880;-64
2021/08/07 07:52:44;;;;;;;6.05;2.45;;;22.60;39.20;;;;;;21207117;27;80499;-70
2021/08/07 08:02:45;;;;;;;6.03;2.47;;;22.70;39.10;;;;;;21205246;27;80716;-65
2021/08/07 08:12:47;;;;;;;6.77;2.47;;;22.90;38.70;;;;;;21224897;27;80473;-65
2021/08/07 08:22:49;;;;;;;4.18;2.25;;;23.30;37.90;;;;;;21205442;27;84208;-66
2021/08/07 08:32:51;;;;;;;3.80;2.17;;;23.60;37.30;;;;;;21205441;27;82245;-68
2021/08/07 08:42:57;;;;;;;2.70;1.55;;;24.00;36.40;;;;;;21204576;27;80259;-67
2021/08/07 08:52:59;;;;;;;2.50;1.20;;;24.90;34.60;;;;;;21223612;27;81593;-67
2021/08/07 09:03:01;;;;;;;3.38;1.00;;;25.90;33.00;;;;;;21141830;27;82260;-64
2021/08/07 09:13:04;;;;;;;2.38;0.73;;;26.80;31.40;;;;;;21125209;27;81878;-65
2021/08/07 09:23:07;;;;;;;2.22;0.80;;;26.90;30.40;;;;;;21131269;27;81924;-67
2021/08/07 09:33:29;;;;;;;3.90;0.60;;;27.00;30.20;;;;;;21130720;27;80820;-65
2021/08/07 09:43:40;;;;;;;1.60;0.67;;;27.00;30.50;;;;;;21148012;27;80818;-67
2021/08/07 09:53:42;;;;;;;;;;;26.80;30.50;;;;;;21143502;27;80799;-67
2021/08/07 10:03:43;;;;;;;2.03;0.60;;;27.10;31.10;;;;;;21150847;27;81102;-65
2021/08/07 10:13:45;;;;;;;3.60;1.25;;;27.60;29.30;;;;;;21127735;27;80363;-66
2021/08/07 10:23:50;;;;;;;1.92;0.80;;;28.60;27.80;;;;;;21144913;27;80725;-68
2021/08/07 10:34:04;;;;;;;1.42;0.63;;;29.70;26.10;;;;;;21230587;27;80980;-66
2021/08/07 10:44:06;;;;;;;1.00;0.60;;;30.80;24.50;;;;;;21211450;27;80730;-67
2021/08/07 10:54:29;;;;;;;3.70;0.80;;;32.10;23.60;;;;;;21211634;27;80170;-67
2021/08/07 11:04:48;;;;;;;3.95;0.70;;;33.50;22.70;;;;;;21198230;27;80829;-68
2021/08/07 11:14:56;;;;;;;5.32;0.60;;;35.50;21.20;;;;;;21228509;27;81198;-66
2021/08/07 11:25:06;;;;;;;2.42;0.93;;;38.10;18.80;;;;;;21208907;27;80752;-64
2021/08/07 11:35:07;;;;;;;1.35;0.60;;;42.40;15.60;;;;;;21226383;27;80001;-67
2021/08/07 11:45:14;;;;;;;3.83;0.77;;;44.30;14.70;;;;;;21226021;27;80893;-67
2021/08/07 11:55:16;;;;;;;2.15;0.90;;;43.90;14.90;;;;;;21207495;27;81349;-67
2021/08/07 12:05:17;;;;;;;2.85;0.80;;;45.60;14.10;;;;;;21225251;27;80752;-67
2021/08/07 12:15:19;;;;;;;3.35;0.75;;;48.40;13.30;;;;;;21224485;27;80469;-69
2021/08/07 12:25:21;;;;;;;1.25;0.80;;;49.00;13.20;;;;;;21225163;27;81815;-66
2021/08/07 12:35:29;;;;;;;2.00;0.90;;;;;;;;;;21204520;27;80703;-67
2021/08/07 12:45:31;;;;;;;1.35;0.85;;;49.70;13.10;;;;;;21211282;27;80953;-66
2021/08/07 12:55:49;;;;;;;2.92;1.50;;;50.70;12.60;;;;;;21219091;27;81087;-67
2021/08/07 13:06:03;;;;;;;2.53;1.10;;;51.50;12.00;;;;;;21218954;27;80043;-68
2021/08/07 13:16:05;;;;;;;2.97;1.33;;;51.50;11.70;;;;;;21219921;27;80744;-66
2021/08/07 13:26:10;;;;;;;2.95;2.05;;;52.90;11.20;;;;;;21217461;27;80338;-67
2021/08/07 13:36:11;;;;;;;2.40;1.60;;;53.10;11.20;;;;;;21235343;27;80137;-67
2021/08/07 13:46:13;;;;;;;1.88;1.73;;;53.20;11.30;;;;;;21236571;27;82492;-67
2021/08/07 13:56:14;;;;;;;2.80;1.40;;;51.00;11.70;;;;;;21233653;27;80569;-66
2021/08/07 14:06:18;;;;;;;2.95;1.42;;;47.50;12.90;;;;;;21232622;27;80505;-67
2021/08/07 14:16:19;;;;;;;2.17;1.98;;;48.90;12.10;;;;;;21215466;27;83026;-66
2021/08/07 14:26:21;;;;;;;2.65;1.58;;;49.40;11.80;;;;;;21213596;27;80773;-68
2021/08/07 14:36:22;;;;;;;2.30;1.90;;;51.20;10.80;;;;;;21212749;27;81112;-69
2021/08/07 14:46:24;;;;;;;2.60;1.90;;;51.30;11.10;;;;;;21213378;27;80630;-68
2021/08/07 14:56:26;;;;;;;1.70;1.60;;;51.40;11.40;;;;;;21213648;27;80536;-67
2021/08/07 15:06:28;;;;;;;2.10;1.90;;;50.80;11.80;;;;;;21206758;27;82158;-67
2021/08/07 15:16:29;;;;;;;0.90;0.70;;;45.00;13.90;;;;;;21206590;27;80679;-66
2021/08/07 15:26:31;;;;;;;1.50;0.90;;;40.90;16.10;;;;;;21230141;27;79927;-66
2021/08/07 15:36:34;;;;;;;1.10;0.80;;;38.00;18.40;;;;;;21212150;27;79934;-67
2021/08/07 15:46:36;;;;;;;1.90;0.60;;;37.10;18.80;;;;;;21209882;27;81235;-67
2021/08/07 15:56:39;;;;;;;1.25;0.75;;;36.30;19.80;;;;;;21226533;27;80811;-68
2021/08/07 16:06:41;;;;;;;1.17;0.63;;;35.40;20.00;;;;;;21210647;27;81732;-66
2021/08/07 16:16:43;;;;;;;1.10;0.90;;;34.80;20.60;;;;;;21208311;27;80726;-66
2021/08/07 16:26:46;;;;;;;1.02;0.63;;;37.40;18.20;;;;;;21243488;27;80508;-66
2021/08/07 16:36:48;;;;;;;2.33;0.70;;;44.10;14.10;;;;;;21221741;27;80012;-66
2021/08/07 16:46:50;;;;;;;1.05;0.50;;;40.30;16.10;;;;;;21239506;27;80886;-68
2021/08/07 16:56:51;;;;;;;0.73;0.50;;;36.60;18.20;;;;;;21240153;27;81549;-71
2021/08/07 17:06:53;;;;;;;0.93;0.50;;;35.40;19.20;;;;;;21220637;27;80767;-67
2021/08/07 17:17:00;;;;;;;1.65;0.70;;;35.50;19.30;;;;;;21237830;27;80512;-69
2021/08/07 17:27:01;;;;;;;1.25;0.55;;;35.20;19.30;;;;;;21218955;27;80637;-65
2021/08/07 17:37:03;;;;;;;0.65;0.40;;;34.40;19.50;;;;;;21217905;27;80015;-68
2021/08/07 17:47:05;;;;;;;2.05;0.73;;;34.00;19.80;;;;;;21237380;27;81159;-67
2021/08/07 17:57:06;;;;;;;2.47;0.50;;;33.70;19.90;;;;;;21215941;27;80510;-68
2021/08/07 18:07:08;;;;;;;0.70;0.47;;;36.40;18.00;;;;;;21216439;27;81108;-67
2021/08/07 18:17:10;;;;;;;2.92;0.82;;;36.50;17.70;;;;;;21214727;27;81806;-66
2021/08/07 18:27:12;;;;;;;1.23;0.60;;;34.50;19.10;;;;;;21234313;27;81126;-70
2021/08/07 18:37:14;;;;;;;13.32;0.82;;;33.80;19.70;;;;;;21214218;27;80553;-70
2021/08/07 18:47:16;;;;;;;2.05;0.90;;;32.40;20.70;;;;;;21232750;27;80559;-67
2021/08/07 18:57:18;;;;;;;1.20;0.50;;;31.60;21.60;;;;;;21213253;27;80091;-66
2021/08/07 19:07:20;;;;;;;2.58;0.77;;;30.70;22.30;;;;;;21210723;27;80353;-69
2021/08/07 19:17:22;;;;;;;2.88;1.00;;;30.30;22.50;;;;;;21122402;27;80572;-66
2021/08/07 19:27:26;;;;;;;1.83;0.90;;;29.80;22.60;;;;;;21122240;27;80539;-66
2021/08/07 19:37:30;;;;;;;2.47;1.00;;;29.40;22.90;;;;;;21124323;27;80374;-67
2021/08/07 19:47:35;;;;;;;1.35;0.60;;;29.10;23.10;;;;;;21124300;27;81026;-66
2021/08/07 19:57:37;;;;;;;4.45;1.13;;;28.80;23.10;;;;;;21122288;27;80365;-68
2021/08/07 20:07:39;;;;;;;2.25;1.08;;;28.50;23.60;;;;;;21122664;27;80536;-66
2021/08/07 20:17:43;;;;;;;2.67;1.27;;;28.30;23.80;;;;;;21122000;27;80734;-69
2021/08/07 20:27:45;;;;;;;1.55;0.98;;;28.00;24.10;;;;;;21121065;27;79790;-67
2021/08/07 20:37:48;;;;;;;5.47;1.50;;;27.80;24.60;;;;;;21119965;27;80766;-66
2021/08/07 20:47:49;;;;;;;2.00;1.13;;;27.50;24.60;;;;;;21120545;27;81017;-67
2021/08/07 20:57:52;;;;;;;2.15;0.80;;;27.30;24.80;;;;;;21118830;27;80757;-67
2021/08/07 21:07:54;;;;;;;4.13;0.93;;;27.00;24.90;;;;;;21129328;27;81062;-66
2021/08/07 21:17:56;;;;;;;1.40;0.50;;;26.90;25.30;;;;;;21132473;27;80578;-67
2021/08/07 21:27:57;;;;;;;1.83;0.63;;;26.70;25.30;;;;;;21150540;27;81066;-67
2021/08/07 21:38:00;;;;;;;1.63;0.65;;;26.50;25.70;;;;;;21131676;27;79932;-66
2021/08/07 21:48:02;;;;;;;3.55;0.68;;;26.30;25.90;;;;;;21132115;27;80956;-67
2021/08/07 21:58:04;;;;;;;2.42;1.10;;;26.20;26.10;;;;;;21130597;27;80042;-69
2021/08/07 22:08:07;;;;;;;5.03;0.90;;;26.10;27.10;;;;;;21131579;27;79872;-66
2021/08/07 22:18:12;;;;;;;1.23;0.50;;;26.00;26.70;;;;;;21128401;27;81190;-67
2021/08/07 22:28:21;;;;;;;1.60;0.60;;;25.90;26.70;;;;;;21129291;27;82006;-67
2021/08/07 22:38:23;;;;;;;1.42;0.50;;;25.70;26.80;;;;;;21144985;27;80724;-67
2021/08/07 22:48:24;;;;;;;1.63;0.60;;;25.60;27.30;;;;;;21126554;27;80103;-67
2021/08/07 22:58:25;;;;;;;1.70;0.68;;;25.50;27.40;;;;;;21143201;27;80762;-67
2021/08/07 23:08:27;;;;;;;2.55;1.27;;;25.40;27.50;;;;;;21143011;27;79718;-67
2021/08/07 23:18:29;;;;;;;3.53;0.60;;;25.20;27.40;;;;;;21124174;27;80668;-67
2021/08/07 23:28:30;;;;;;;2.75;0.70;;;25.10;27.60;;;;;;21124438;27;81014;-66
2021/08/07 23:38:31;;;;;;;3.17;0.75;;;24.90;27.80;;;;;;21122711;27;80672;-66
2021/08/07 23:48:33;;;;;;;2.75;0.60;;;24.70;27.90;;;;;;21122482;27;80876;-67
2021/08/07 23:58:34;;;;;;;2.58;0.60;;;24.60;28.00;;;;;;21121434;27;80506;-65
